sensor_id;sensor_type;location;lat;lon;timestamp;temperature;humidity
78461;SHT31;67755;51.986;5.696;2023-12-20T00:01:55;10.8;67.0
78461;SHT31;67755;51.986;5.696;2023-12-20T00:04:24;10.8;67.0
78461;SHT31;67755;51.986;5.696;2023-12-20T00:06:53;10.8;67.0
78461;SHT31;67755;51.986;5.696;2023-12-20T00:09:21;10.8;67.4
78461;SHT31;67755;51.986;5.696;2023-12-20T00:11:50;10.7;67.5
78461;SHT31;67755;51.986;5.696;2023-12-20T00:14:18;10.7;67.8
78461;SHT31;67755;51.986;5.696;2023-12-20T00:16:47;10.7;67.9
78461;SHT31;67755;51.986;5.696;2023-12-20T00:19:15;10.7;67.6
78461;SHT31;67755;51.986;5.696;2023-12-20T00:21:46;10.7;67.2
78461;SHT31;67755;51.986;5.696;2023-12-20T00:24:14;10.7;67.3
78461;SHT31;67755;51.986;5.696;2023-12-20T00:26:43;10.6;67.4
78461;SHT31;67755;51.986;5.696;2023-12-20T00:29:12;10.6;67.4
78461;SHT31;67755;51.986;5.696;2023-12-20T00:31:40;10.6;67.2
78461;SHT31;67755;51.986;5.696;2023-12-20T00:34:09;10.6;67.1
78461;SHT31;67755;51.986;5.696;2023-12-20T00:36:37;10.6;66.9
78461;SHT31;67755;51.986;5.696;2023-12-20T00:39:06;10.6;66.9
78461;SHT31;67755;51.986;5.696;2023-12-20T00:41:34;10.6;67.0
78461;SHT31;67755;51.986;5.696;2023-12-20T00:44:03;10.5;66.9
78461;SHT31;67755;51.986;5.696;2023-12-20T00:46:33;10.5;66.9
78461;SHT31;67755;51.986;5.696;2023-12-20T00:49:02;10.5;66.7
78461;SHT31;67755;51.986;5.696;2023-12-20T00:51:30;10.5;66.5
78461;SHT31;67755;51.986;5.696;2023-12-20T00:53:59;10.5;66.6
78461;SHT31;67755;51.986;5.696;2023-12-20T00:56:28;10.5;66.4
78461;SHT31;67755;51.986;5.696;2023-12-20T00:58:56;10.5;66.4
78461;SHT31;67755;51.986;5.696;2023-12-20T01:01:25;10.4;66.3
78461;SHT31;67755;51.986;5.696;2023-12-20T01:03:54;10.4;66.2
78461;SHT31;67755;51.986;5.696;2023-12-20T01:06:24;10.4;66.1
78461;SHT31;67755;51.986;5.696;2023-12-20T01:08:53;10.4;66.2
78461;SHT31;67755;51.986;5.696;2023-12-20T01:11:21;10.4;66.4
78461;SHT31;67755;51.986;5.696;2023-12-20T01:13:50;10.4;66.4
78461;SHT31;67755;51.986;5.696;2023-12-20T01:16:19;10.4;66.5
78461;SHT31;67755;51.986;5.696;2023-12-20T01:18:47;10.3;66.3
78461;SHT31;67755;51.986;5.696;2023-12-20T01:21:16;10.3;66.1
78461;SHT31;67755;51.986;5.696;2023-12-20T01:23:45;10.3;66.1
78461;SHT31;67755;51.986;5.696;2023-12-20T01:26:14;10.3;66.3
78461;SHT31;67755;51.986;5.696;2023-12-20T01:28:43;10.3;66.2
78461;SHT31;67755;51.986;5.696;2023-12-20T01:31:12;10.3;66.2
78461;SHT31;67755;51.986;5.696;2023-12-20T01:33:40;10.3;66.1
78461;SHT31;67755;51.986;5.696;2023-12-20T01:36:09;10.2;66.1
78461;SHT31;67755;51.986;5.696;2023-12-20T01:38:38;10.2;65.7
78461;SHT31;67755;51.986;5.696;2023-12-20T01:41:06;10.2;65.9
78461;SHT31;67755;51.986;5.696;2023-12-20T01:43:35;10.2;65.9
78461;SHT31;67755;51.986;5.696;2023-12-20T01:46:04;10.2;65.9
78461;SHT31;67755;51.986;5.696;2023-12-20T01:48:35;10.2;66.0
78461;SHT31;67755;51.986;5.696;2023-12-20T01:51:04;10.2;66.2
78461;SHT31;67755;51.986;5.696;2023-12-20T01:53:34;10.1;66.3
78461;SHT31;67755;51.986;5.696;2023-12-20T01:56:04;10.1;66.2
78461;SHT31;67755;51.986;5.696;2023-12-20T01:58:33;10.1;66.2
78461;SHT31;67755;51.986;5.696;2023-12-20T02:01:02;10.1;66.5
78461;SHT31;67755;51.986;5.696;2023-12-20T02:03:31;10.1;66.8
78461;SHT31;67755;51.986;5.696;2023-12-20T02:06:03;10.1;67.0
78461;SHT31;67755;51.986;5.696;2023-12-20T02:08:32;10.1;67.1
78461;SHT31;67755;51.986;5.696;2023-12-20T02:11:01;10.0;67.3
78461;SHT31;67755;51.986;5.696;2023-12-20T02:13:30;10.0;67.7
78461;SHT31;67755;51.986;5.696;2023-12-20T02:15:59;10.0;68.1
78461;SHT31;67755;51.986;5.696;2023-12-20T02:18:29;10.0;68.1
78461;SHT31;67755;51.986;5.696;2023-12-20T02:20:57;10.0;68.0
78461;SHT31;67755;51.986;5.696;2023-12-20T02:23:26;10.0;68.1
78461;SHT31;67755;51.986;5.696;2023-12-20T02:25:57;10.0;68.0
78461;SHT31;67755;51.986;5.696;2023-12-20T02:28:25;10.0;68.0
78461;SHT31;67755;51.986;5.696;2023-12-20T02:30:54;10.0;68.3
78461;SHT31;67755;51.986;5.696;2023-12-20T02:33:23;10.0;68.5
78461;SHT31;67755;51.986;5.696;2023-12-20T02:35:52;10.0;68.9
78461;SHT31;67755;51.986;5.696;2023-12-20T02:38:20;10.0;69.0
78461;SHT31;67755;51.986;5.696;2023-12-20T02:40:49;10.0;68.9
78461;SHT31;67755;51.986;5.696;2023-12-20T02:43:18;10.0;69.1
78461;SHT31;67755;51.986;5.696;2023-12-20T02:45:46;10.0;68.7
78461;SHT31;67755;51.986;5.696;2023-12-20T02:48:15;10.0;68.9
78461;SHT31;67755;51.986;5.696;2023-12-20T02:50:44;10.0;69.2
78461;SHT31;67755;51.986;5.696;2023-12-20T02:53:14;10.0;69.2
78461;SHT31;67755;51.986;5.696;2023-12-20T02:55:44;10.0;69.3
78461;SHT31;67755;51.986;5.696;2023-12-20T02:58:12;10.0;69.0
78461;SHT31;67755;51.986;5.696;2023-12-20T03:00:41;10.0;68.5
78461;SHT31;67755;51.986;5.696;2023-12-20T03:03:10;10.1;68.5
78461;SHT31;67755;51.986;5.696;2023-12-20T03:05:39;10.1;68.7
78461;SHT31;67755;51.986;5.696;2023-12-20T03:08:07;10.1;68.6
78461;SHT31;67755;51.986;5.696;2023-12-20T03:10:37;10.1;68.3
78461;SHT31;67755;51.986;5.696;2023-12-20T03:13:05;10.1;68.0
78461;SHT31;67755;51.986;5.696;2023-12-20T03:15:36;10.1;67.9
78461;SHT31;67755;51.986;5.696;2023-12-20T03:18:05;10.1;67.7
78461;SHT31;67755;51.986;5.696;2023-12-20T03:20:35;10.1;67.8
78461;SHT31;67755;51.986;5.696;2023-12-20T03:23:04;10.1;68.0
78461;SHT31;67755;51.986;5.696;2023-12-20T03:25:32;10.0;68.1
78461;SHT31;67755;51.986;5.696;2023-12-20T03:28:01;10.0;68.0
78461;SHT31;67755;51.986;5.696;2023-12-20T03:30:29;10.0;68.1
78461;SHT31;67755;51.986;5.696;2023-12-20T03:32:58;10.0;68.0
78461;SHT31;67755;51.986;5.696;2023-12-20T03:35:27;10.0;68.2
78461;SHT31;67755;51.986;5.696;2023-12-20T03:37:57;10.0;68.4
78461;SHT31;67755;51.986;5.696;2023-12-20T03:40:26;10.0;68.5
78461;SHT31;67755;51.986;5.696;2023-12-20T03:42:55;10.0;68.5
78461;SHT31;67755;51.986;5.696;2023-12-20T03:45:24;10.0;68.3
78461;SHT31;67755;51.986;5.696;2023-12-20T03:47:52;10.0;68.6
78461;SHT31;67755;51.986;5.696;2023-12-20T03:50:23;10.0;68.7
78461;SHT31;67755;51.986;5.696;2023-12-20T03:52:52;10.0;68.6
78461;SHT31;67755;51.986;5.696;2023-12-20T03:55:20;10.0;68.5
78461;SHT31;67755;51.986;5.696;2023-12-20T03:57:49;10.0;68.6
78461;SHT31;67755;51.986;5.696;2023-12-20T04:00:18;10.0;68.7
78461;SHT31;67755;51.986;5.696;2023-12-20T04:02:47;10.0;68.8
78461;SHT31;67755;51.986;5.696;2023-12-20T04:05:15;10.0;68.8
78461;SHT31;67755;51.986;5.696;2023-12-20T04:07:45;10.0;68.6
78461;SHT31;67755;51.986;5.696;2023-12-20T04:10:13;10.0;68.7
78461;SHT31;67755;51.986;5.696;2023-12-20T04:12:42;10.0;68.6
78461;SHT31;67755;51.986;5.696;2023-12-20T04:15:11;10.0;68.8
78461;SHT31;67755;51.986;5.696;2023-12-20T04:17:40;10.0;68.9
78461;SHT31;67755;51.986;5.696;2023-12-20T04:20:09;10.0;68.8
78461;SHT31;67755;51.986;5.696;2023-12-20T04:22:38;10.0;68.7
78461;SHT31;67755;51.986;5.696;2023-12-20T04:25:09;10.0;68.5
78461;SHT31;67755;51.986;5.696;2023-12-20T04:27:40;10.0;69.0
78461;SHT31;67755;51.986;5.696;2023-12-20T04:30:11;10.0;69.1
78461;SHT31;67755;51.986;5.696;2023-12-20T04:32:40;10.0;69.3
78461;SHT31;67755;51.986;5.696;2023-12-20T04:35:11;10.0;69.5
78461;SHT31;67755;51.986;5.696;2023-12-20T04:37:39;10.0;69.6
78461;SHT31;67755;51.986;5.696;2023-12-20T04:40:09;10.1;69.2
78461;SHT31;67755;51.986;5.696;2023-12-20T04:42:38;10.1;69.4
78461;SHT31;67755;51.986;5.696;2023-12-20T04:45:07;10.1;69.3
78461;SHT31;67755;51.986;5.696;2023-12-20T04:47:35;10.1;69.6
78461;SHT31;67755;51.986;5.696;2023-12-20T04:50:05;10.1;69.8
78461;SHT31;67755;51.986;5.696;2023-12-20T04:52:34;10.1;69.9
78461;SHT31;67755;51.986;5.696;2023-12-20T04:55:03;10.1;70.1
78461;SHT31;67755;51.986;5.696;2023-12-20T04:57:32;10.1;70.1
78461;SHT31;67755;51.986;5.696;2023-12-20T05:00:01;10.1;69.6
78461;SHT31;67755;51.986;5.696;2023-12-20T05:02:31;10.1;69.7
78461;SHT31;67755;51.986;5.696;2023-12-20T05:04:59;10.1;69.4
78461;SHT31;67755;51.986;5.696;2023-12-20T05:07:28;10.1;69.6
78461;SHT31;67755;51.986;5.696;2023-12-20T05:09:56;10.1;69.7
78461;SHT31;67755;51.986;5.696;2023-12-20T05:12:27;10.2;69.4
78461;SHT31;67755;51.986;5.696;2023-12-20T05:15:00;10.2;69.4
78461;SHT31;67755;51.986;5.696;2023-12-20T05:17:30;10.2;69.4
78461;SHT31;67755;51.986;5.696;2023-12-20T05:19:59;10.2;69.9
78461;SHT31;67755;51.986;5.696;2023-12-20T05:22:28;10.2;69.9
78461;SHT31;67755;51.986;5.696;2023-12-20T05:24:56;10.2;70.2
78461;SHT31;67755;51.986;5.696;2023-12-20T05:27:26;10.2;69.7
78461;SHT31;67755;51.986;5.696;2023-12-20T05:29:55;10.2;69.9
78461;SHT31;67755;51.986;5.696;2023-12-20T05:32:24;10.3;69.9
78461;SHT31;67755;51.986;5.696;2023-12-20T05:34:52;10.3;70.1
78461;SHT31;67755;51.986;5.696;2023-12-20T05:37:21;10.3;69.5
78461;SHT31;67755;51.986;5.696;2023-12-20T05:39:50;10.3;68.6
78461;SHT31;67755;51.986;5.696;2023-12-20T05:42:18;10.3;69.0
78461;SHT31;67755;51.986;5.696;2023-12-20T05:44:48;10.3;69.6
78461;SHT31;67755;51.986;5.696;2023-12-20T05:47:19;10.3;69.8
78461;SHT31;67755;51.986;5.696;2023-12-20T05:49:47;10.3;69.7
78461;SHT31;67755;51.986;5.696;2023-12-20T05:52:16;10.4;68.9
78461;SHT31;67755;51.986;5.696;2023-12-20T05:54:45;10.4;69.3
78461;SHT31;67755;51.986;5.696;2023-12-20T05:57:14;10.4;69.6
78461;SHT31;67755;51.986;5.696;2023-12-20T05:59:42;10.4;68.6
78461;SHT31;67755;51.986;5.696;2023-12-20T06:02:11;10.4;69.1
78461;SHT31;67755;51.986;5.696;2023-12-20T06:04:42;10.4;68.9
78461;SHT31;67755;51.986;5.696;2023-12-20T06:07:13;10.4;69.1
78461;SHT31;67755;51.986;5.696;2023-12-20T06:09:42;10.4;68.6
78461;SHT31;67755;51.986;5.696;2023-12-20T06:12:11;10.4;68.7
78461;SHT31;67755;51.986;5.696;2023-12-20T06:14:40;10.4;68.5
78461;SHT31;67755;51.986;5.696;2023-12-20T06:17:08;10.4;69.1
78461;SHT31;67755;51.986;5.696;2023-12-20T06:19:37;10.4;68.8
78461;SHT31;67755;51.986;5.696;2023-12-20T06:22:05;10.4;68.5
78461;SHT31;67755;51.986;5.696;2023-12-20T06:24:34;10.4;69.1
78461;SHT31;67755;51.986;5.696;2023-12-20T06:27:03;10.4;68.6
78461;SHT31;67755;51.986;5.696;2023-12-20T06:29:31;10.4;68.1
78461;SHT31;67755;51.986;5.696;2023-12-20T06:32:01;10.4;68.6
78461;SHT31;67755;51.986;5.696;2023-12-20T06:34:29;10.4;68.8
78461;SHT31;67755;51.986;5.696;2023-12-20T06:36:58;10.4;68.1
78461;SHT31;67755;51.986;5.696;2023-12-20T06:39:26;10.4;67.9
78461;SHT31;67755;51.986;5.696;2023-12-20T06:41:57;10.4;68.4
78461;SHT31;67755;51.986;5.696;2023-12-20T06:44:26;10.4;68.5
78461;SHT31;67755;51.986;5.696;2023-12-20T06:46:54;10.4;68.6
78461;SHT31;67755;51.986;5.696;2023-12-20T06:49:23;10.4;67.9
78461;SHT31;67755;51.986;5.696;2023-12-20T06:51:52;10.4;68.3
78461;SHT31;67755;51.986;5.696;2023-12-20T06:54:20;10.4;67.6
78461;SHT31;67755;51.986;5.696;2023-12-20T06:56:49;10.4;68.6
78461;SHT31;67755;51.986;5.696;2023-12-20T06:59:17;10.4;68.8
78461;SHT31;67755;51.986;5.696;2023-12-20T07:01:49;10.4;67.8
78461;SHT31;67755;51.986;5.696;2023-12-20T07:04:18;10.4;68.1
78461;SHT31;67755;51.986;5.696;2023-12-20T07:06:49;10.4;68.7
78461;SHT31;67755;51.986;5.696;2023-12-20T07:09:20;10.4;67.8
78461;SHT31;67755;51.986;5.696;2023-12-20T07:11:49;10.4;68.0
78461;SHT31;67755;51.986;5.696;2023-12-20T07:14:17;10.4;67.5
78461;SHT31;67755;51.986;5.696;2023-12-20T07:16:46;10.4;68.0
78461;SHT31;67755;51.986;5.696;2023-12-20T07:19:15;10.4;68.6
78461;SHT31;67755;51.986;5.696;2023-12-20T07:21:44;10.4;68.5
78461;SHT31;67755;51.986;5.696;2023-12-20T07:24:12;10.4;68.2
78461;SHT31;67755;51.986;5.696;2023-12-20T07:26:41;10.4;68.6
78461;SHT31;67755;51.986;5.696;2023-12-20T07:29:09;10.4;68.5
78461;SHT31;67755;51.986;5.696;2023-12-20T07:31:38;10.4;68.0
78461;SHT31;67755;51.986;5.696;2023-12-20T07:34:07;10.4;68.5
78461;SHT31;67755;51.986;5.696;2023-12-20T07:36:36;10.4;68.4
78461;SHT31;67755;51.986;5.696;2023-12-20T07:39:04;10.4;68.5
78461;SHT31;67755;51.986;5.696;2023-12-20T07:41:34;10.4;68.7
78461;SHT31;67755;51.986;5.696;2023-12-20T07:44:04;10.4;69.1
78461;SHT31;67755;51.986;5.696;2023-12-20T07:46:33;10.4;68.6
78461;SHT31;67755;51.986;5.696;2023-12-20T07:49:02;10.4;69.0
78461;SHT31;67755;51.986;5.696;2023-12-20T07:51:30;10.5;68.7
78461;SHT31;67755;51.986;5.696;2023-12-20T07:53:59;10.5;68.8
78461;SHT31;67755;51.986;5.696;2023-12-20T07:56:29;10.5;68.8
78461;SHT31;67755;51.986;5.696;2023-12-20T07:58:58;10.5;68.3
78461;SHT31;67755;51.986;5.696;2023-12-20T08:01:27;10.5;68.6
78461;SHT31;67755;51.986;5.696;2023-12-20T08:03:58;10.5;68.2
78461;SHT31;67755;51.986;5.696;2023-12-20T08:06:29;10.5;68.8
78461;SHT31;67755;51.986;5.696;2023-12-20T08:08:57;10.5;68.1
78461;SHT31;67755;51.986;5.696;2023-12-20T08:11:26;10.5;68.0
78461;SHT31;67755;51.986;5.696;2023-12-20T08:13:55;10.5;68.6
78461;SHT31;67755;51.986;5.696;2023-12-20T08:16:23;10.6;67.9
78461;SHT31;67755;51.986;5.696;2023-12-20T08:18:54;10.6;67.7
78461;SHT31;67755;51.986;5.696;2023-12-20T08:21:23;10.6;67.5
78461;SHT31;67755;51.986;5.696;2023-12-20T08:23:52;10.6;68.3
78461;SHT31;67755;51.986;5.696;2023-12-20T08:26:21;10.6;67.7
78461;SHT31;67755;51.986;5.696;2023-12-20T08:28:50;10.6;68.1
78461;SHT31;67755;51.986;5.696;2023-12-20T08:31:20;10.7;68.2
78461;SHT31;67755;51.986;5.696;2023-12-20T08:33:51;10.7;68.0
78461;SHT31;67755;51.986;5.696;2023-12-20T08:36:21;10.7;67.9
78461;SHT31;67755;51.986;5.696;2023-12-20T08:38:50;10.7;68.2
78461;SHT31;67755;51.986;5.696;2023-12-20T08:41:19;10.7;67.9
78461;SHT31;67755;51.986;5.696;2023-12-20T08:43:50;10.7;68.1
78461;SHT31;67755;51.986;5.696;2023-12-20T08:46:18;10.7;68.6
78461;SHT31;67755;51.986;5.696;2023-12-20T08:48:47;10.7;68.2
78461;SHT31;67755;51.986;5.696;2023-12-20T08:51:18;10.7;68.1
78461;SHT31;67755;51.986;5.696;2023-12-20T08:53:49;10.7;68.1
78461;SHT31;67755;51.986;5.696;2023-12-20T08:56:19;10.7;68.3
78461;SHT31;67755;51.986;5.696;2023-12-20T08:58:48;10.7;68.1
78461;SHT31;67755;51.986;5.696;2023-12-20T09:01:17;10.7;68.1
78461;SHT31;67755;51.986;5.696;2023-12-20T09:03:45;10.7;68.1
78461;SHT31;67755;51.986;5.696;2023-12-20T09:06:14;10.7;68.3
78461;SHT31;67755;51.986;5.696;2023-12-20T09:08:43;10.7;68.7
78461;SHT31;67755;51.986;5.696;2023-12-20T09:11:11;10.7;68.8
78461;SHT31;67755;51.986;5.696;2023-12-20T09:13:40;10.7;68.6
78461;SHT31;67755;51.986;5.696;2023-12-20T09:16:09;10.7;69.2
78461;SHT31;67755;51.986;5.696;2023-12-20T09:18:39;10.8;69.1
78461;SHT31;67755;51.986;5.696;2023-12-20T09:21:08;10.8;69.0
78461;SHT31;67755;51.986;5.696;2023-12-20T09:23:36;10.8;68.8
78461;SHT31;67755;51.986;5.696;2023-12-20T09:26:06;10.8;69.1
78461;SHT31;67755;51.986;5.696;2023-12-20T09:28:35;10.8;69.3
78461;SHT31;67755;51.986;5.696;2023-12-20T09:31:07;10.8;70.0
78461;SHT31;67755;51.986;5.696;2023-12-20T09:33:35;10.7;69.9
78461;SHT31;67755;51.986;5.696;2023-12-20T09:36:06;10.7;69.7
78461;SHT31;67755;51.986;5.696;2023-12-20T09:38:35;10.7;70.1
78461;SHT31;67755;51.986;5.696;2023-12-20T09:41:05;10.7;69.9
78461;SHT31;67755;51.986;5.696;2023-12-20T09:43:37;10.7;70.4
78461;SHT31;67755;51.986;5.696;2023-12-20T09:46:06;10.7;70.5
78461;SHT31;67755;51.986;5.696;2023-12-20T09:48:37;10.8;71.1
78461;SHT31;67755;51.986;5.696;2023-12-20T09:51:09;10.8;70.1
78461;SHT31;67755;51.986;5.696;2023-12-20T09:53:40;10.8;69.7
78461;SHT31;67755;51.986;5.696;2023-12-20T09:56:09;10.8;70.1
78461;SHT31;67755;51.986;5.696;2023-12-20T09:58:39;10.8;69.2
78461;SHT31;67755;51.986;5.696;2023-12-20T10:01:08;10.8;69.7
78461;SHT31;67755;51.986;5.696;2023-12-20T10:03:41;10.9;69.9
78461;SHT31;67755;51.986;5.696;2023-12-20T10:06:10;10.9;69.9
78461;SHT31;67755;51.986;5.696;2023-12-20T10:08:40;10.9;70.0
78461;SHT31;67755;51.986;5.696;2023-12-20T10:11:10;10.9;70.1
78461;SHT31;67755;51.986;5.696;2023-12-20T10:13:42;10.9;70.4
78461;SHT31;67755;51.986;5.696;2023-12-20T10:16:11;10.9;70.1
78461;SHT31;67755;51.986;5.696;2023-12-20T10:18:39;10.9;70.5
78461;SHT31;67755;51.986;5.696;2023-12-20T10:21:08;10.9;69.7
78461;SHT31;67755;51.986;5.696;2023-12-20T10:23:38;10.9;69.8
78461;SHT31;67755;51.986;5.696;2023-12-20T10:26:07;11.0;70.0
78461;SHT31;67755;51.986;5.696;2023-12-20T10:28:36;11.0;70.1
78461;SHT31;67755;51.986;5.696;2023-12-20T10:31:05;11.0;69.7
78461;SHT31;67755;51.986;5.696;2023-12-20T10:33:34;11.0;69.7
78461;SHT31;67755;51.986;5.696;2023-12-20T10:36:02;11.0;70.1
78461;SHT31;67755;51.986;5.696;2023-12-20T10:38:31;11.0;69.7
78461;SHT31;67755;51.986;5.696;2023-12-20T10:41:01;11.1;70.2
78461;SHT31;67755;51.986;5.696;2023-12-20T10:43:33;11.1;70.2
78461;SHT31;67755;51.986;5.696;2023-12-20T10:46:05;11.1;70.0
78461;SHT31;67755;51.986;5.696;2023-12-20T10:48:34;11.1;70.3
78461;SHT31;67755;51.986;5.696;2023-12-20T10:51:06;11.1;70.0
78461;SHT31;67755;51.986;5.696;2023-12-20T10:53:36;11.1;70.1
78461;SHT31;67755;51.986;5.696;2023-12-20T10:56:14;11.2;70.1
78461;SHT31;67755;51.986;5.696;2023-12-20T10:58:45;11.2;70.1
78461;SHT31;67755;51.986;5.696;2023-12-20T11:01:15;11.2;69.5
78461;SHT31;67755;51.986;5.696;2023-12-20T11:03:50;11.3;69.7
78461;SHT31;67755;51.986;5.696;2023-12-20T11:06:29;11.3;69.5
78461;SHT31;67755;51.986;5.696;2023-12-20T11:09:06;11.3;69.7
78461;SHT31;67755;51.986;5.696;2023-12-20T11:11:51;11.3;70.2
78461;SHT31;67755;51.986;5.696;2023-12-20T11:17:10;11.4;70.1
78461;SHT31;67755;51.986;5.696;2023-12-20T11:20:09;11.4;68.5
78461;SHT31;67755;51.986;5.696;2023-12-20T11:22:53;11.4;68.7
78461;SHT31;67755;51.986;5.696;2023-12-20T11:25:22;11.5;68.3
78461;SHT31;67755;51.986;5.696;2023-12-20T11:28:09;11.5;68.2
78461;SHT31;67755;51.986;5.696;2023-12-20T11:30:46;11.5;68.0
78461;SHT31;67755;51.986;5.696;2023-12-20T11:33:15;11.5;68.4
78461;SHT31;67755;51.986;5.696;2023-12-20T11:35:45;11.6;68.3
78461;SHT31;67755;51.986;5.696;2023-12-20T11:38:15;11.6;68.0
78461;SHT31;67755;51.986;5.696;2023-12-20T11:40:44;11.6;68.3
78461;SHT31;67755;51.986;5.696;2023-12-20T11:43:32;11.6;66.9
78461;SHT31;67755;51.986;5.696;2023-12-20T11:46:08;11.6;66.9
78461;SHT31;67755;51.986;5.696;2023-12-20T11:48:38;11.6;66.3
78461;SHT31;67755;51.986;5.696;2023-12-20T11:51:14;11.7;65.9
78461;SHT31;67755;51.986;5.696;2023-12-20T11:53:42;11.7;66.6
78461;SHT31;67755;51.986;5.696;2023-12-20T11:56:11;11.7;66.5
78461;SHT31;67755;51.986;5.696;2023-12-20T11:58:40;11.7;66.9
78461;SHT31;67755;51.986;5.696;2023-12-20T12:01:10;11.7;67.0
78461;SHT31;67755;51.986;5.696;2023-12-20T12:03:40;11.7;67.1
78461;SHT31;67755;51.986;5.696;2023-12-20T12:06:12;11.7;66.0
78461;SHT31;67755;51.986;5.696;2023-12-20T12:08:40;11.8;66.5
78461;SHT31;67755;51.986;5.696;2023-12-20T12:11:09;11.8;66.4
78461;SHT31;67755;51.986;5.696;2023-12-20T12:13:40;11.8;65.9
78461;SHT31;67755;51.986;5.696;2023-12-20T12:16:16;11.8;66.3
78461;SHT31;67755;51.986;5.696;2023-12-20T12:18:45;11.8;66.4
78461;SHT31;67755;51.986;5.696;2023-12-20T12:21:20;11.8;66.5
78461;SHT31;67755;51.986;5.696;2023-12-20T12:23:49;11.9;66.5
78461;SHT31;67755;51.986;5.696;2023-12-20T12:26:18;11.9;66.3
78461;SHT31;67755;51.986;5.696;2023-12-20T12:28:46;11.9;67.5
78461;SHT31;67755;51.986;5.696;2023-12-20T12:31:15;11.9;67.3
78461;SHT31;67755;51.986;5.696;2023-12-20T12:33:44;11.9;66.9
78461;SHT31;67755;51.986;5.696;2023-12-20T12:36:13;12.0;66.2
78461;SHT31;67755;51.986;5.696;2023-12-20T12:38:45;12.0;66.2
78461;SHT31;67755;51.986;5.696;2023-12-20T12:41:14;12.0;66.1
78461;SHT31;67755;51.986;5.696;2023-12-20T12:43:43;12.0;66.6
78461;SHT31;67755;51.986;5.696;2023-12-20T12:46:14;12.0;67.1
78461;SHT31;67755;51.986;5.696;2023-12-20T12:48:43;12.0;66.5
78461;SHT31;67755;51.986;5.696;2023-12-20T12:51:12;12.0;66.9
78461;SHT31;67755;51.986;5.696;2023-12-20T12:53:41;12.1;67.6
78461;SHT31;67755;51.986;5.696;2023-12-20T12:56:12;12.1;66.5
78461;SHT31;67755;51.986;5.696;2023-12-20T12:58:42;12.1;66.5
78461;SHT31;67755;51.986;5.696;2023-12-20T13:01:12;12.1;66.2
78461;SHT31;67755;51.986;5.696;2023-12-20T13:03:40;12.1;65.1
78461;SHT31;67755;51.986;5.696;2023-12-20T13:06:09;12.1;66.6
78461;SHT31;67755;51.986;5.696;2023-12-20T13:08:38;12.1;66.1
78461;SHT31;67755;51.986;5.696;2023-12-20T13:11:08;12.1;66.6
78461;SHT31;67755;51.986;5.696;2023-12-20T13:13:36;12.1;65.2
78461;SHT31;67755;51.986;5.696;2023-12-20T13:16:06;12.1;65.3
78461;SHT31;67755;51.986;5.696;2023-12-20T13:18:34;12.1;66.1
78461;SHT31;67755;51.986;5.696;2023-12-20T13:21:09;12.1;65.9
78461;SHT31;67755;51.986;5.696;2023-12-20T13:23:37;12.1;65.7
78461;SHT31;67755;51.986;5.696;2023-12-20T13:26:08;12.1;66.2
78461;SHT31;67755;51.986;5.696;2023-12-20T13:28:37;12.1;66.8
78461;SHT31;67755;51.986;5.696;2023-12-20T13:31:05;12.1;66.3
78461;SHT31;67755;51.986;5.696;2023-12-20T13:33:34;12.1;66.6
78461;SHT31;67755;51.986;5.696;2023-12-20T13:36:04;12.1;65.8
78461;SHT31;67755;51.986;5.696;2023-12-20T13:38:32;12.1;65.6
78461;SHT31;67755;51.986;5.696;2023-12-20T13:41:01;12.1;65.6
78461;SHT31;67755;51.986;5.696;2023-12-20T13:43:31;12.1;66.0
78461;SHT31;67755;51.986;5.696;2023-12-20T13:46:00;12.1;66.2
78461;SHT31;67755;51.986;5.696;2023-12-20T13:48:32;12.1;65.8
78461;SHT31;67755;51.986;5.696;2023-12-20T13:51:01;12.1;66.5
78461;SHT31;67755;51.986;5.696;2023-12-20T13:53:30;12.1;65.5
78461;SHT31;67755;51.986;5.696;2023-12-20T13:56:01;12.1;65.8
78461;SHT31;67755;51.986;5.696;2023-12-20T13:58:30;12.1;65.5
78461;SHT31;67755;51.986;5.696;2023-12-20T14:01:00;12.2;65.5
78461;SHT31;67755;51.986;5.696;2023-12-20T14:03:31;12.2;65.3
78461;SHT31;67755;51.986;5.696;2023-12-20T14:06:00;12.2;65.3
78461;SHT31;67755;51.986;5.696;2023-12-20T14:08:29;12.2;64.8
78461;SHT31;67755;51.986;5.696;2023-12-20T14:10:57;12.1;65.0
78461;SHT31;67755;51.986;5.696;2023-12-20T14:13:27;12.2;65.1
78461;SHT31;67755;51.986;5.696;2023-12-20T14:15:57;12.2;65.2
78461;SHT31;67755;51.986;5.696;2023-12-20T14:18:29;12.2;64.4
78461;SHT31;67755;51.986;5.696;2023-12-20T14:20:59;12.2;64.7
78461;SHT31;67755;51.986;5.696;2023-12-20T14:23:27;12.2;65.2
78461;SHT31;67755;51.986;5.696;2023-12-20T14:25:56;12.2;65.1
78461;SHT31;67755;51.986;5.696;2023-12-20T14:28:28;12.2;65.4
78461;SHT31;67755;51.986;5.696;2023-12-20T14:30:57;12.2;64.8
78461;SHT31;67755;51.986;5.696;2023-12-20T14:33:26;12.2;65.0
78461;SHT31;67755;51.986;5.696;2023-12-20T14:35:54;12.2;64.8
78461;SHT31;67755;51.986;5.696;2023-12-20T14:38:25;12.2;64.7
78461;SHT31;67755;51.986;5.696;2023-12-20T14:40:53;12.2;65.2
78461;SHT31;67755;51.986;5.696;2023-12-20T14:43:22;12.2;65.1
78461;SHT31;67755;51.986;5.696;2023-12-20T14:45:51;12.2;65.4
78461;SHT31;67755;51.986;5.696;2023-12-20T14:48:21;12.2;65.4
78461;SHT31;67755;51.986;5.696;2023-12-20T14:50:50;12.2;65.2
78461;SHT31;67755;51.986;5.696;2023-12-20T14:53:20;12.2;65.6
78461;SHT31;67755;51.986;5.696;2023-12-20T14:55:48;12.2;65.0
78461;SHT31;67755;51.986;5.696;2023-12-20T14:58:17;12.2;65.2
78461;SHT31;67755;51.986;5.696;2023-12-20T15:00:46;12.2;65.4
78461;SHT31;67755;51.986;5.696;2023-12-20T15:03:14;12.2;65.3
78461;SHT31;67755;51.986;5.696;2023-12-20T15:05:45;12.2;65.2
78461;SHT31;67755;51.986;5.696;2023-12-20T15:08:14;12.2;65.1
78461;SHT31;67755;51.986;5.696;2023-12-20T15:10:45;12.2;65.1
78461;SHT31;67755;51.986;5.696;2023-12-20T15:13:15;12.2;65.2
78461;SHT31;67755;51.986;5.696;2023-12-20T15:15:44;12.2;65.4
78461;SHT31;67755;51.986;5.696;2023-12-20T15:18:13;12.2;65.6
78461;SHT31;67755;51.986;5.696;2023-12-20T15:20:42;12.2;65.7
78461;SHT31;67755;51.986;5.696;2023-12-20T15:23:11;12.2;65.6
78461;SHT31;67755;51.986;5.696;2023-12-20T15:25:40;12.2;65.6
78461;SHT31;67755;51.986;5.696;2023-12-20T15:28:11;12.1;65.5
78461;SHT31;67755;51.986;5.696;2023-12-20T15:30:39;12.1;66.1
78461;SHT31;67755;51.986;5.696;2023-12-20T15:33:08;12.1;65.9
78461;SHT31;67755;51.986;5.696;2023-12-20T15:35:37;12.1;66.0
78461;SHT31;67755;51.986;5.696;2023-12-20T15:38:07;12.1;66.2
78461;SHT31;67755;51.986;5.696;2023-12-20T15:40:36;12.1;66.9
78461;SHT31;67755;51.986;5.696;2023-12-20T15:43:04;12.0;67.0
78461;SHT31;67755;51.986;5.696;2023-12-20T15:45:33;12.0;67.3
78461;SHT31;67755;51.986;5.696;2023-12-20T15:48:02;12.0;67.2
78461;SHT31;67755;51.986;5.696;2023-12-20T15:50:31;12.0;67.7
78461;SHT31;67755;51.986;5.696;2023-12-20T15:53:00;12.0;67.5
78461;SHT31;67755;51.986;5.696;2023-12-20T15:55:31;12.0;68.1
78461;SHT31;67755;51.986;5.696;2023-12-20T15:58:00;12.0;68.1
78461;SHT31;67755;51.986;5.696;2023-12-20T16:00:29;12.0;68.4
78461;SHT31;67755;51.986;5.696;2023-12-20T16:02:57;12.0;68.4
78461;SHT31;67755;51.986;5.696;2023-12-20T16:05:26;12.0;68.4
78461;SHT31;67755;51.986;5.696;2023-12-20T16:07:55;11.9;68.6
78461;SHT31;67755;51.986;5.696;2023-12-20T16:10:23;11.9;69.0
78461;SHT31;67755;51.986;5.696;2023-12-20T16:12:52;11.9;68.8
78461;SHT31;67755;51.986;5.696;2023-12-20T16:15:20;11.9;69.4
78461;SHT31;67755;51.986;5.696;2023-12-20T16:17:49;11.9;69.2
78461;SHT31;67755;51.986;5.696;2023-12-20T16:20:18;11.9;69.0